Time;durP1;ratioP1;P1;durP2;ratioP2;P2;SDS_P1;SDS_P2;PMS_P1;PMS_P2;Temp;Humidity;BMP_temperature;BMP_pressure;BME280_temperature;BME280_humidity;BME280_pressure;Samples;Min_cycle;Max_cycle;Signal;HPM_P1;HPM_P2
2023/01/29 00:01:10;;;;;;;4.22;2.55;;;;;;;;;;5063344;28;20033;-83
2023/01/29 00:03:35;;;;;;;1.17;1.10;;;;;;;;;;5065466;28;20044;-83
2023/01/29 00:06:06;;;;;;;1.40;1.15;;;;;;;;;;5061425;28;20029;-82
2023/01/29 00:08:38;;;;;;;1.75;1.27;;;;;;;;;;5081398;28;20021;-81
2023/01/29 00:11:05;;;;;;;5.18;2.33;;;;;;;;;;5061854;28;20118;-82
2023/01/29 00:13:31;;;;;;;2.10;1.92;;;;;;;;;;5061242;28;20020;-80
2023/01/29 00:15:57;;;;;;;1.90;0.85;;;;;;;;;;5078536;28;20115;-81
2023/01/29 00:18:24;;;;;;;3.25;2.42;;;;;;;;;;5058226;28;20380;-82
2023/01/29 00:20:50;;;;;;;3.17;2.10;;;;;;;;;;5065587;28;20414;-82
2023/01/29 00:23:16;;;;;;;2.95;2.60;;;;;;;;;;5079528;28;20031;-83
2023/01/29 00:25:42;;;;;;;1.67;1.33;;;;;;;;;;5067687;28;20459;-83
2023/01/29 00:28:08;;;;;;;2.83;2.17;;;;;;;;;;5087234;28;20090;-82
2023/01/29 00:30:35;;;;;;;2.35;1.92;;;;;;;;;;5088247;28;20032;-82
2023/01/29 00:33:00;;;;;;;4.43;2.25;;;;;;;;;;5085884;28;20020;-83
2023/01/29 00:35:25;;;;;;;1.08;0.98;;;;;;;;;;5065802;28;20025;-81
2023/01/29 00:37:51;;;;;;;3.10;1.45;;;;;;;;;;5068435;28;20024;-83
2023/01/29 00:40:16;;;;;;;1.10;1.00;;;;;;;;;;5084998;28;20024;-82
2023/01/29 00:45:28;;;;;;;1.70;1.35;;;;;;;;;;5087375;28;20031;-82
2023/01/29 00:47:53;;;;;;;2.30;1.83;;;;;;;;;;5064533;28;20032;-82
2023/01/29 00:50:19;;;;;;;3.35;1.52;;;;;;;;;;5089848;28;20031;-81
2023/01/29 00:52:44;;;;;;;1.42;1.23;;;;;;;;;;5082835;28;20053;-80
2023/01/29 00:55:11;;;;;;;1.35;1.25;;;;;;;;;;5069660;28;20024;-81
2023/01/29 00:57:37;;;;;;;2.08;1.63;;;;;;;;;;5071555;28;20111;-82
2023/01/29 01:00:06;;;;;;;1.75;1.48;;;;;;;;;;5066715;28;20025;-81
2023/01/29 01:05:16;;;;;;;1.50;1.40;;;;;;;;;;5087098;28;20035;-80
2023/01/29 01:07:54;;;;;;;4.60;1.52;;;;;;;;;;5087834;28;20035;-81
2023/01/29 01:10:23;;;;;;;0.93;0.93;;;;;;;;;;5066462;28;20040;-82
2023/01/29 01:13:03;;;;;;;1.70;1.40;;;;;;;;;;5087340;28;20027;-81
2023/01/29 01:15:38;;;;;;;2.63;1.38;;;;;;;;;;5083249;28;20032;-80
2023/01/29 01:18:04;;;;;;;1.48;1.40;;;;;;;;;;5085214;28;20099;-80
2023/01/29 01:20:32;;;;;;;3.83;2.13;;;;;;;;;;5068152;28;20032;-80
2023/01/29 01:23:01;;;;;;;2.22;1.75;;;;;;;;;;5090128;28;20127;-81
2023/01/29 01:25:27;;;;;;;1.65;1.55;;;;;;;;;;5086713;28;20044;-81
2023/01/29 01:27:53;;;;;;;1.23;1.10;;;;;;;;;;5066864;28;20028;-81
2023/01/29 01:30:19;;;;;;;1.42;1.33;;;;;;;;;;5065396;28;20107;-80
2023/01/29 01:32:44;;;;;;;8.45;1.75;;;;;;;;;;5083287;28;20052;-81
2023/01/29 01:35:12;;;;;;;3.15;1.63;;;;;;;;;;5081129;28;20084;-80
2023/01/29 01:37:37;;;;;;;3.85;1.55;;;;;;;;;;5065209;28;20055;-80
2023/01/29 01:40:11;;;;;;;2.30;2.10;;;;;;;;;;5065392;28;20464;-82
2023/01/29 01:42:40;;;;;;;4.38;3.03;;;;;;;;;;5088169;28;20031;-80
2023/01/29 01:45:15;;;;;;;2.43;1.70;;;;;;;;;;5082238;28;20028;-80
2023/01/29 01:47:49;;;;;;;2.83;1.92;;;;;;;;;;5090275;28;20541;-80
2023/01/29 01:50:22;;;;;;;1.58;1.40;;;;;;;;;;5068567;28;20494;-80
2023/01/29 01:52:52;;;;;;;4.32;2.53;;;;;;;;;;5065609;28;20037;-81
2023/01/29 01:55:23;;;;;;;2.40;2.03;;;;;;;;;;5064363;28;20024;-81
2023/01/29 01:57:54;;;;;;;1.95;1.75;;;;;;;;;;5084260;28;20035;-81
2023/01/29 02:00:20;;;;;;;4.32;2.38;;;;;;;;;;5086816;28;20039;-79
2023/01/29 02:11:18;;;;;;;0.93;0.83;;;;;;;;;;5081140;28;20043;-81
2023/01/29 02:13:44;;;;;;;4.55;2.85;;;;;;;;;;5072553;28;20277;-81
2023/01/29 02:16:09;;;;;;;2.03;1.75;;;;;;;;;;5072596;28;20020;-82
2023/01/29 02:18:36;;;;;;;1.45;0.88;;;;;;;;;;5081252;28;20095;-82
2023/01/29 02:21:28;;;;;;;2.20;2.00;;;;;;;;;;5083236;28;20468;-81
2023/01/29 02:24:07;;;;;;;0.63;0.63;;;;;;;;;;5069584;28;20465;-82
2023/01/29 02:26:36;;;;;;;;;;;;;;;;;;5082879;28;20098;-81
2023/01/29 02:29:27;;;;;;;2.13;1.95;;;;;;;;;;5066287;28;20007;-81
2023/01/29 02:32:07;;;;;;;2.63;1.67;;;;;;;;;;5042151;28;20119;-82
2023/01/29 02:37:32;;;;;;;1.38;1.27;;;;;;;;;;5081931;28;20035;-81
2023/01/29 02:40:06;;;;;;;2.25;1.23;;;;;;;;;;5086443;28;20464;-82
2023/01/29 02:42:46;;;;;;;6.75;2.70;;;;;;;;;;5059766;28;20025;-82
2023/01/29 02:45:45;;;;;;;3.13;1.50;;;;;;;;;;5082999;28;20047;-81
2023/01/29 02:48:21;;;;;;;3.25;2.08;;;;;;;;;;5060205;28;20059;-83
2023/01/29 02:50:57;;;;;;;1.90;1.77;;;;;;;;;;5082845;28;20054;-83
2023/01/29 02:53:39;;;;;;;2.53;1.48;;;;;;;;;;5065198;28;20028;-83
2023/01/29 02:56:07;;;;;;;4.13;1.75;;;;;;;;;;5084174;28;20027;-83
2023/01/29 02:58:43;;;;;;;1.35;1.17;;;;;;;;;;5059535;28;20361;-83
2023/01/29 03:01:19;;;;;;;2.92;1.55;;;;;;;;;;5087893;28;20467;-82
2023/01/29 03:03:51;;;;;;;1.40;1.30;;;;;;;;;;5067234;28;20074;-83
2023/01/29 03:06:23;;;;;;;0.82;0.82;;;;;;;;;;5067590;28;20020;-82
2023/01/29 03:09:09;;;;;;;1.10;0.90;;;;;;;;;;5083058;28;20020;-83
2023/01/29 03:11:43;;;;;;;1.83;1.27;;;;;;;;;;5069460;28;20050;-83
2023/01/29 03:14:23;;;;;;;1.05;1.00;;;;;;;;;;5082179;28;20099;-83
2023/01/29 03:16:50;;;;;;;1.40;1.30;;;;;;;;;;5084093;28;20081;-82
2023/01/29 03:19:41;;;;;;;0.80;0.80;;;;;;;;;;5067349;28;20020;-82
2023/01/29 03:22:10;;;;;;;0.70;0.70;;;;;;;;;;5066685;28;20067;-82
2023/01/29 03:33:25;;;;;;;1.98;1.58;;;;;;;;;;5082659;28;20408;-82
2023/01/29 03:35:59;;;;;;;0.85;0.70;;;;;;;;;;5085229;28;20020;-82
2023/01/29 03:38:28;;;;;;;0.55;0.55;;;;;;;;;;5086350;28;20395;-81
2023/01/29 03:41:16;;;;;;;1.05;1.05;;;;;;;;;;5085712;28;20039;-82
2023/01/29 03:44:49;;;;;;;1.13;0.90;;;;;;;;;;5080314;28;20031;-81
2023/01/29 03:47:40;;;;;;;1.95;0.90;;;;;;;;;;4955619;28;20042;-82
2023/01/29 03:50:30;;;;;;;1.05;0.68;;;;;;;;;;4983460;28;20034;-80
2023/01/29 03:53:05;;;;;;;2.50;0.93;;;;;;;;;;5071410;28;20047;-82
2023/01/29 03:55:41;;;;;;;3.65;2.45;;;;;;;;;;5063605;28;20035;-82
2023/01/29 03:58:42;;;;;;;0.60;0.60;;;;;;;;;;5084309;28;20032;-81
2023/01/29 04:01:23;;;;;;;0.98;0.93;;;;;;;;;;5034442;28;20583;-82
2023/01/29 04:03:58;;;;;;;1.70;0.88;;;;;;;;;;5065418;28;20020;-82
2023/01/29 04:06:28;;;;;;;2.42;1.42;;;;;;;;;;5060294;28;20031;-82
2023/01/29 04:09:06;;;;;;;0.95;0.85;;;;;;;;;;5063315;28;20065;-80
2023/01/29 04:11:35;;;;;;;1.30;1.20;;;;;;;;;;5076640;28;20066;-83
2023/01/29 04:14:00;;;;;;;4.07;2.55;;;;;;;;;;5076302;28;20561;-81
2023/01/29 04:16:32;;;;;;;0.52;0.52;;;;;;;;;;5074416;28;20025;-83
2023/01/29 04:18:58;;;;;;;3.83;1.58;;;;;;;;;;5060404;28;21343;-83
2023/01/29 04:21:24;;;;;;;2.28;1.65;;;;;;;;;;5067209;28;20640;-81
2023/01/29 04:23:51;;;;;;;1.13;0.98;;;;;;;;;;5082721;28;20029;-82
2023/01/29 04:26:41;;;;;;;1.75;1.65;;;;;;;;;;5078493;28;20049;-83
2023/01/29 04:29:21;;;;;;;;;;;;;;;;;;5066855;28;20024;-82
2023/01/29 04:31:54;;;;;;;;;;;;;;;;;;5061219;28;19919;-83
2023/01/29 04:34:27;;;;;;;0.40;0.40;;;;;;;;;;5076661;28;19952;-82
2023/01/29 04:37:11;;;;;;;0.70;0.55;;;;;;;;;;5082990;28;20020;-83
2023/01/29 04:39:52;;;;;;;2.00;1.63;;;;;;;;;;5065980;28;20528;-81
2023/01/29 04:42:18;;;;;;;1.05;0.98;;;;;;;;;;5080319;28;20028;-83
2023/01/29 04:45:00;;;;;;;0.70;0.65;;;;;;;;;;5068819;28;20035;-82
2023/01/29 04:47:34;;;;;;;1.27;1.10;;;;;;;;;;5067314;28;20097;-82
2023/01/29 04:50:14;;;;;;;3.47;1.80;;;;;;;;;;5082201;28;20020;-81
2023/01/29 04:52:59;;;;;;;0.40;0.40;;;;;;;;;;5065498;28;20391;-83
2023/01/29 04:55:36;;;;;;;1.23;1.13;;;;;;;;;;5058922;28;20040;-83
2023/01/29 04:58:27;;;;;;;1.08;1.08;;;;;;;;;;5077933;28;20025;-82
2023/01/29 05:00:53;;;;;;;0.98;0.98;;;;;;;;;;5075844;28;20028;-81
2023/01/29 05:03:22;;;;;;;1.55;1.45;;;;;;;;;;5060025;28;20136;-80
2023/01/29 05:05:49;;;;;;;1.27;1.17;;;;;;;;;;5058648;28;20120;-82
2023/01/29 05:08:51;;;;;;;2.15;1.60;;;;;;;;;;5067142;28;20111;-83
2023/01/29 05:11:20;;;;;;;1.02;0.93;;;;;;;;;;5069647;28;20051;-81
2023/01/29 05:13:47;;;;;;;5.15;2.58;;;;;;;;;;5082730;28;20024;-79
2023/01/29 05:16:27;;;;;;;3.63;1.45;;;;;;;;;;5084194;28;20085;-82
2023/01/29 05:18:52;;;;;;;1.40;1.20;;;;;;;;;;5065913;28;20040;-82
2023/01/29 05:21:19;;;;;;;1.05;0.98;;;;;;;;;;5086832;28;20032;-80
2023/01/29 05:23:52;;;;;;;2.00;1.80;;;;;;;;;;5084284;28;20085;-82
2023/01/29 05:29:04;;;;;;;1.65;1.30;;;;;;;;;;5084974;28;20097;-81
2023/01/29 05:31:29;;;;;;;3.03;1.92;;;;;;;;;;5063823;28;20372;-82
2023/01/29 05:33:55;;;;;;;1.67;0.93;;;;;;;;;;5067458;28;20032;-82
2023/01/29 05:36:20;;;;;;;1.70;1.48;;;;;;;;;;5086038;28;20032;-81
2023/01/29 05:38:45;;;;;;;1.17;0.75;;;;;;;;;;5083126;28;20046;-82
2023/01/29 05:41:11;;;;;;;1.08;1.05;;;;;;;;;;5066866;28;20391;-81
2023/01/29 05:43:36;;;;;;;1.33;1.23;;;;;;;;;;5065448;28;20016;-82
2023/01/29 05:46:02;;;;;;;1.88;1.10;;;;;;;;;;5064907;28;20032;-81
2023/01/29 05:48:30;;;;;;;2.00;1.55;;;;;;;;;;5067985;28;20024;-85
2023/01/29 05:51:02;;;;;;;2.47;1.45;;;;;;;;;;5070538;28;20029;-82
2023/01/29 05:53:28;;;;;;;1.63;1.15;;;;;;;;;;5066471;28;20025;-82
2023/01/29 05:55:56;;;;;;;1.85;0.82;;;;;;;;;;5082521;28;20039;-81
2023/01/29 05:58:21;;;;;;;1.90;1.42;;;;;;;;;;5080485;28;20046;-81
2023/01/29 06:00:47;;;;;;;0.70;0.70;;;;;;;;;;5082519;28;20464;-81
2023/01/29 06:03:13;;;;;;;0.52;0.52;;;;;;;;;;5086479;28;20387;-83
2023/01/29 06:05:39;;;;;;;0.80;0.80;;;;;;;;;;5078960;28;20024;-80
2023/01/29 06:08:05;;;;;;;2.08;1.90;;;;;;;;;;5081836;28;20477;-82
2023/01/29 06:10:31;;;;;;;1.23;1.15;;;;;;;;;;5082088;28;20055;-81
2023/01/29 06:12:56;;;;;;;1.73;1.63;;;;;;;;;;5085688;28;20033;-81
2023/01/29 06:15:23;;;;;;;1.90;1.40;;;;;;;;;;5083259;28;20709;-82
2023/01/29 06:17:49;;;;;;;2.88;2.60;;;;;;;;;;5086091;28;20082;-80
2023/01/29 06:20:14;;;;;;;1.02;0.70;;;;;;;;;;5084499;28;20480;-83
2023/01/29 06:22:39;;;;;;;3.83;1.95;;;;;;;;;;5083399;28;20099;-81
2023/01/29 06:25:06;;;;;;;2.00;1.77;;;;;;;;;;5082049;28;20493;-82
2023/01/29 06:27:31;;;;;;;0.90;0.85;;;;;;;;;;5078760;28;20032;-83
2023/01/29 06:29:57;;;;;;;0.82;0.68;;;;;;;;;;5082193;28;20028;-84
2023/01/29 06:32:22;;;;;;;2.17;1.83;;;;;;;;;;5062875;28;20066;-83
2023/01/29 06:34:48;;;;;;;0.85;0.85;;;;;;;;;;5080438;28;20387;-83
2023/01/29 06:37:13;;;;;;;0.95;0.95;;;;;;;;;;5066806;28;20059;-85
2023/01/29 06:39:38;;;;;;;1.52;1.42;;;;;;;;;;5081707;28;20028;-85
2023/01/29 06:42:19;;;;;;;2.42;1.67;;;;;;;;;;5086318;28;20043;-86
2023/01/29 06:44:44;;;;;;;1.02;0.93;;;;;;;;;;5064807;28;20027;-85
2023/01/29 06:47:10;;;;;;;2.20;2.00;;;;;;;;;;5084740;28;20020;-85
2023/01/29 06:49:43;;;;;;;1.42;1.33;;;;;;;;;;5082710;28;20017;-85
2023/01/29 06:52:11;;;;;;;5.03;1.63;;;;;;;;;;5087315;28;20035;-84
2023/01/29 06:54:36;;;;;;;2.00;0.90;;;;;;;;;;5064486;28;20036;-83
2023/01/29 06:57:02;;;;;;;1.30;1.20;;;;;;;;;;5078491;28;20024;-83
2023/01/29 06:59:27;;;;;;;5.88;1.85;;;;;;;;;;5060871;28;20482;-82
2023/01/29 07:01:53;;;;;;;2.05;1.70;;;;;;;;;;5082218;28;20094;-83
2023/01/29 07:04:18;;;;;;;3.70;1.40;;;;;;;;;;5086681;28;20035;-86
2023/01/29 07:06:43;;;;;;;1.00;0.90;;;;;;;;;;5062819;28;20028;-82
2023/01/29 07:09:12;;;;;;;3.17;2.10;;;;;;;;;;5086770;28;20024;-85
2023/01/29 07:11:38;;;;;;;1.45;1.10;;;;;;;;;;5078028;28;21420;-84
2023/01/29 07:14:04;;;;;;;3.80;2.65;;;;;;;;;;5067527;28;20027;-82
2023/01/29 07:16:29;;;;;;;2.45;1.98;;;;;;;;;;5064084;28;20032;-84
2023/01/29 07:18:55;;;;;;;3.42;1.65;;;;;;;;;;5084140;28;20384;-84
2023/01/29 07:21:20;;;;;;;3.03;1.92;;;;;;;;;;5084514;28;20023;-84
2023/01/29 07:23:46;;;;;;;1.45;1.35;;;;;;;;;;5063835;28;20098;-85
2023/01/29 07:26:11;;;;;;;0.70;0.70;;;;;;;;;;5063208;28;20048;-83
2023/01/29 07:28:38;;;;;;;3.10;2.30;;;;;;;;;;5082372;28;20029;-87
2023/01/29 07:31:04;;;;;;;4.43;2.45;;;;;;;;;;5067239;28;20042;-86
2023/01/29 07:33:30;;;;;;;1.55;1.15;;;;;;;;;;5082444;28;20020;-84
2023/01/29 07:35:55;;;;;;;1.65;1.45;;;;;;;;;;5084002;28;20549;-86
2023/01/29 07:38:21;;;;;;;3.13;1.67;;;;;;;;;;5066930;28;20024;-84
2023/01/29 07:40:46;;;;;;;2.05;1.95;;;;;;;;;;5080207;28;20034;-87
2023/01/29 07:43:12;;;;;;;1.65;1.52;;;;;;;;;;5081168;28;20028;-86
2023/01/29 07:45:39;;;;;;;3.20;2.17;;;;;;;;;;5066895;28;20052;-86
2023/01/29 07:48:08;;;;;;;6.18;3.08;;;;;;;;;;5069078;28;20027;-85
2023/01/29 07:50:34;;;;;;;3.00;1.92;;;;;;;;;;5086669;28;20028;-83
2023/01/29 07:53:00;;;;;;;3.10;2.30;;;;;;;;;;5081739;28;20698;-86
2023/01/29 07:55:25;;;;;;;3.22;2.20;;;;;;;;;;5064850;28;20106;-83
2023/01/29 07:57:55;;;;;;;1.35;1.13;;;;;;;;;;5060375;28;20032;-81
2023/01/29 08:00:21;;;;;;;3.55;2.42;;;;;;;;;;5061072;28;20047;-84
2023/01/29 08:02:46;;;;;;;4.97;2.50;;;;;;;;;;5081574;28;20031;-82
2023/01/29 08:05:12;;;;;;;1.63;1.50;;;;;;;;;;5083884;28;20024;-81
2023/01/29 08:07:37;;;;;;;1.95;1.80;;;;;;;;;;5081195;28;20039;-83
2023/01/29 08:10:03;;;;;;;3.97;2.45;;;;;;;;;;5062811;28;20028;-84
2023/01/29 08:12:29;;;;;;;2.60;1.92;;;;;;;;;;5063889;28;20032;-85
2023/01/29 08:14:54;;;;;;;1.80;1.40;;;;;;;;;;5068950;28;20041;-82
2023/01/29 08:17:29;;;;;;;2.35;1.48;;;;;;;;;;5086536;28;20021;-82
2023/01/29 08:19:54;;;;;;;4.05;2.75;;;;;;;;;;5063803;28;20012;-84
2023/01/29 08:22:20;;;;;;;2.20;1.83;;;;;;;;;;5062654;28;20029;-84
2023/01/29 08:24:45;;;;;;;3.25;2.15;;;;;;;;;;5058327;28;20052;-84
2023/01/29 08:27:11;;;;;;;5.93;2.38;;;;;;;;;;5065288;28;20406;-82
2023/01/29 08:29:36;;;;;;;3.42;2.33;;;;;;;;;;5063352;28;20031;-85
2023/01/29 08:32:02;;;;;;;2.08;1.88;;;;;;;;;;5063973;28;20024;-84
2023/01/29 08:34:27;;;;;;;2.63;2.30;;;;;;;;;;5075834;28;20020;-83
2023/01/29 08:36:53;;;;;;;5.25;3.60;;;;;;;;;;5059751;28;20052;-82
2023/01/29 08:39:18;;;;;;;3.47;2.33;;;;;;;;;;5065928;28;20476;-82
2023/01/29 08:41:44;;;;;;;2.97;1.60;;;;;;;;;;5063035;28;20031;-83
2023/01/29 08:44:09;;;;;;;5.18;2.53;;;;;;;;;;5084800;28;20032;-84
2023/01/29 08:46:35;;;;;;;1.10;1.05;;;;;;;;;;5084472;28;20107;-82
2023/01/29 08:49:01;;;;;;;3.15;2.85;;;;;;;;;;5065353;28;20487;-82
2023/01/29 08:51:27;;;;;;;1.67;1.50;;;;;;;;;;5063148;28;20111;-82
2023/01/29 08:53:53;;;;;;;3.20;2.35;;;;;;;;;;5081929;28;20024;-82
2023/01/29 08:56:19;;;;;;;1.50;1.40;;;;;;;;;;5070254;28;20027;-81
2023/01/29 08:58:44;;;;;;;9.52;2.58;;;;;;;;;;5085469;28;20035;-82
2023/01/29 09:01:13;;;;;;;3.30;2.25;;;;;;;;;;5062563;28;20028;-82
2023/01/29 09:03:39;;;;;;;2.63;1.92;;;;;;;;;;5061464;28;20503;-82
2023/01/29 09:06:06;;;;;;;1.92;1.70;;;;;;;;;;5072121;28;20060;-81
2023/01/29 09:08:31;;;;;;;3.50;2.15;;;;;;;;;;5060320;28;20082;-83
2023/01/29 09:11:00;;;;;;;4.35;3.50;;;;;;;;;;5076523;28;20028;-81
2023/01/29 09:13:25;;;;;;;6.22;3.22;;;;;;;;;;5064758;28;20468;-81
2023/01/29 09:15:51;;;;;;;12.35;3.92;;;;;;;;;;5081091;28;20039;-82
2023/01/29 09:18:16;;;;;;;1.58;1.48;;;;;;;;;;5082039;28;20115;-83
2023/01/29 09:20:42;;;;;;;3.35;2.70;;;;;;;;;;5082080;28;20099;-82
2023/01/29 09:23:09;;;;;;;4.10;2.80;;;;;;;;;;5064052;28;20020;-84
2023/01/29 09:25:35;;;;;;;5.57;4.03;;;;;;;;;;5065994;28;20052;-86
2023/01/29 09:28:00;;;;;;;4.93;2.47;;;;;;;;;;5085067;28;20036;-85
2023/01/29 09:30:26;;;;;;;4.85;3.63;;;;;;;;;;5064046;28;20021;-82
2023/01/29 09:32:51;;;;;;;5.57;3.58;;;;;;;;;;5060093;28;20024;-84
2023/01/29 09:35:17;;;;;;;4.80;2.75;;;;;;;;;;5065741;28;20028;-82
2023/01/29 09:37:45;;;;;;;8.65;3.13;;;;;;;;;;5069049;28;20031;-82
2023/01/29 09:40:29;;;;;;;5.60;3.38;;;;;;;;;;5059275;28;20099;-82
2023/01/29 09:43:22;;;;;;;3.15;2.65;;;;;;;;;;5059571;28;20020;-83
2023/01/29 09:46:04;;;;;;;8.35;4.45;;;;;;;;;;5081009;28;20024;-82
2023/01/29 09:48:32;;;;;;;3.95;2.67;;;;;;;;;;5077456;28;20029;-82
2023/01/29 09:51:01;;;;;;;4.72;3.65;;;;;;;;;;5079845;28;20399;-84
2023/01/29 09:53:39;;;;;;;5.20;2.85;;;;;;;;;;5078417;28;20408;-83
2023/01/29 09:56:17;;;;;;;1.48;1.33;;;;;;;;;;5078468;28;20165;-82
2023/01/29 09:58:43;;;;;;;13.07;6.82;;;;;;;;;;5081386;28;20031;-84
2023/01/29 10:01:19;;;;;;;7.80;7.05;;;;;;;;;;5077173;28;20024;-84
2023/01/29 10:04:00;;;;;;;5.65;3.97;;;;;;;;;;5058497;28;20028;-85
2023/01/29 10:06:53;;;;;;;6.47;2.90;;;;;;;;;;5079494;28;20043;-84
2023/01/29 10:09:55;;;;;;;5.95;3.35;;;;;;;;;;5078679;28;20059;-83
2023/01/29 10:12:35;;;;;;;2.72;2.38;;;;;;;;;;5063817;28;20067;-85
2023/01/29 10:15:20;;;;;;;6.43;3.50;;;;;;;;;;5087197;28;20108;-83
2023/01/29 10:18:20;;;;;;;9.00;5.13;;;;;;;;;;5065907;28;20033;-83
2023/01/29 10:21:10;;;;;;;6.25;3.63;;;;;;;;;;5065277;28;20418;-84
2023/01/29 10:23:39;;;;;;;5.00;3.70;;;;;;;;;;5062278;28;20033;-84
2023/01/29 10:26:10;;;;;;;5.28;4.35;;;;;;;;;;5080263;28;20100;-82
2023/01/29 10:28:38;;;;;;;6.32;3.55;;;;;;;;;;5078778;28;20029;-82
2023/01/29 10:31:11;;;;;;;8.43;4.88;;;;;;;;;;5081614;28;20384;-84
2023/01/29 10:33:41;;;;;;;5.47;4.30;;;;;;;;;;5083128;28;20422;-83
2023/01/29 10:36:12;;;;;;;8.80;4.18;;;;;;;;;;5081299;28;20025;-80
2023/01/29 10:38:49;;;;;;;8.15;4.38;;;;;;;;;;5083189;28;20020;-86
2023/01/29 10:41:39;;;;;;;5.07;4.18;;;;;;;;;;5057360;28;20046;-85
2023/01/29 10:44:33;;;;;;;4.47;2.75;;;;;;;;;;5079740;28;20035;-83
2023/01/29 10:47:33;;;;;;;2.20;1.85;;;;;;;;;;5061311;28;20063;-83
2023/01/29 10:50:16;;;;;;;2.17;1.95;;;;;;;;;;5065591;28;20066;-83
2023/01/29 10:53:11;;;;;;;3.58;2.95;;;;;;;;;;5065149;28;20032;-83
2023/01/29 10:55:54;;;;;;;6.45;2.75;;;;;;;;;;5080994;28;20535;-84
2023/01/29 10:58:22;;;;;;;8.50;4.25;;;;;;;;;;5081270;28;20468;-84
2023/01/29 11:00:48;;;;;;;5.22;4.30;;;;;;;;;;5081292;28;20031;-84
2023/01/29 11:03:26;;;;;;;6.50;3.75;;;;;;;;;;5081697;28;20028;-84
2023/01/29 11:06:02;;;;;;;7.30;3.72;;;;;;;;;;5079372;28;20029;-81
2023/01/29 11:08:39;;;;;;;10.60;5.88;;;;;;;;;;5081038;28;20058;-82
2023/01/29 11:11:13;;;;;;;6.65;4.88;;;;;;;;;;5061955;28;20062;-85
2023/01/29 11:13:44;;;;;;;9.38;4.75;;;;;;;;;;5082890;28;20103;-86
2023/01/29 11:16:10;;;;;;;6.88;4.63;;;;;;;;;;5084011;28;20039;-84
2023/01/29 11:18:57;;;;;;;5.18;4.07;;;;;;;;;;5089992;28;20024;-85
2023/01/29 11:21:24;;;;;;;5.72;3.58;;;;;;;;;;5062454;28;20076;-83
2023/01/29 11:24:05;;;;;;;2.67;2.42;;;;;;;;;;5082276;28;20416;-83
2023/01/29 11:26:34;;;;;;;4.30;3.63;;;;;;;;;;5062974;28;20069;-85
2023/01/29 11:28:59;;;;;;;8.55;6.10;;;;;;;;;;5081122;28;20036;-85
2023/01/29 11:31:28;;;;;;;8.45;4.90;;;;;;;;;;5078728;28;20024;-85
2023/01/29 11:34:24;;;;;;;8.20;4.43;;;;;;;;;;5058609;28;20495;-84
2023/01/29 11:37:04;;;;;;;10.07;5.78;;;;;;;;;;5063768;28;20020;-84
2023/01/29 11:39:31;;;;;;;15.80;6.00;;;;;;;;;;5078424;28;20020;-84
2023/01/29 11:42:02;;;;;;;18.95;8.82;;;;;;;;;;5062085;28;20036;-83
2023/01/29 11:44:40;;;;;;;6.97;5.90;;;;;;;;;;5082409;28;20107;-84
2023/01/29 11:47:17;;;;;;;5.82;3.88;;;;;;;;;;5060630;28;20461;-85
2023/01/29 11:49:49;;;;;;;4.70;3.45;;;;;;;;;;5065169;28;20024;-83
2023/01/29 11:52:21;;;;;;;4.93;4.45;;;;;;;;;;5082550;28;20024;-85
2023/01/29 11:54:53;;;;;;;10.70;5.38;;;;;;;;;;5054638;28;20484;-87
2023/01/29 11:57:31;;;;;;;8.63;4.72;;;;;;;;;;5076400;28;20074;-84
2023/01/29 12:00:05;;;;;;;5.63;3.50;;;;;;;;;;5061472;28;20024;-83
2023/01/29 12:02:40;;;;;;;8.52;4.95;;;;;;;;;;5063678;28;20468;-85
2023/01/29 12:05:23;;;;;;;7.28;4.57;;;;;;;;;;5079736;28;20375;-86
2023/01/29 12:07:53;;;;;;;6.93;3.85;;;;;;;;;;5063645;28;20029;-86
2023/01/29 12:10:32;;;;;;;2.95;2.75;;;;;;;;;;5064484;28;20031;-86
2023/01/29 12:13:09;;;;;;;5.85;4.53;;;;;;;;;;5063561;28;20043;-84
2023/01/29 12:15:40;;;;;;;5.13;3.17;;;;;;;;;;5064927;28;20043;-85
2023/01/29 12:18:11;;;;;;;5.53;4.35;;;;;;;;;;5081209;28;20488;-84
2023/01/29 12:21:01;;;;;;;8.20;5.55;;;;;;;;;;5062989;28;20050;-84
2023/01/29 12:23:29;;;;;;;8.20;4.68;;;;;;;;;;5085477;28;20020;-85
2023/01/29 12:26:07;;;;;;;5.00;4.57;;;;;;;;;;5077993;28;20048;-81
2023/01/29 12:29:04;;;;;;;8.80;3.15;;;;;;;;;;5083772;28;20035;-86
2023/01/29 12:31:42;;;;;;;12.02;5.97;;;;;;;;;;5082571;28;20027;-84
2023/01/29 12:34:38;;;;;;;9.02;4.32;;;;;;;;;;5066775;28;20491;-83
2023/01/29 12:37:38;;;;;;;11.55;5.07;;;;;;;;;;5085625;28;20029;-86
2023/01/29 12:40:11;;;;;;;10.77;7.72;;;;;;;;;;5039746;28;20115;-87
2023/01/29 12:42:40;;;;;;;10.27;5.10;;;;;;;;;;5063405;28;20107;-85
2023/01/29 12:45:09;;;;;;;11.93;5.45;;;;;;;;;;5066022;28;20123;-87
2023/01/29 12:47:45;;;;;;;5.93;4.28;;;;;;;;;;5065243;28;20388;-81
2023/01/29 12:50:14;;;;;;;6.43;4.60;;;;;;;;;;5082623;28;20021;-86
2023/01/29 12:52:47;;;;;;;6.78;5.10;;;;;;;;;;5066586;28;20021;-87
2023/01/29 12:55:20;;;;;;;17.05;4.97;;;;;;;;;;5079997;28;20025;-84
2023/01/29 12:57:55;;;;;;;12.50;5.97;;;;;;;;;;5062762;28;20111;-84
2023/01/29 13:00:24;;;;;;;15.93;7.05;;;;;;;;;;5063141;28;20016;-84
2023/01/29 13:02:55;;;;;;;12.70;6.93;;;;;;;;;;5084328;28;20498;-84
2023/01/29 13:05:28;;;;;;;9.63;5.32;;;;;;;;;;5082068;28;20099;-83
2023/01/29 13:08:04;;;;;;;7.50;3.95;;;;;;;;;;5064576;28;20023;-85
2023/01/29 13:10:36;;;;;;;6.05;4.45;;;;;;;;;;5080200;28;20127;-86
2023/01/29 13:13:29;;;;;;;4.75;3.58;;;;;;;;;;5080759;28;20392;-85
2023/01/29 13:15:55;;;;;;;3.58;3.08;;;;;;;;;;5063124;28;20020;-84
2023/01/29 13:18:42;;;;;;;6.45;4.05;;;;;;;;;;5064192;28;21585;-85
2023/01/29 13:21:20;;;;;;;3.67;2.90;;;;;;;;;;5062913;28;20031;-82
2023/01/29 13:23:50;;;;;;;7.40;5.20;;;;;;;;;;5063997;28;20029;-84
2023/01/29 13:26:20;;;;;;;5.15;4.63;;;;;;;;;;5063545;28;20060;-84
2023/01/29 13:28:45;;;;;;;;;;;;;;;;;;5080893;28;20037;-84
2023/01/29 13:31:26;;;;;;;8.23;4.22;;;;;;;;;;5067008;28;19939;-86
2023/01/29 13:34:13;;;;;;;11.18;6.63;;;;;;;;;;5081670;28;20020;-86
2023/01/29 13:36:44;;;;;;;8.60;4.80;;;;;;;;;;5080768;28;20522;-85
2023/01/29 13:39:21;;;;;;;13.38;7.10;;;;;;;;;;5084133;28;20468;-85
2023/01/29 13:41:48;;;;;;;13.38;5.22;;;;;;;;;;5085426;28;20056;-86
2023/01/29 13:44:35;;;;;;;13.43;6.38;;;;;;;;;;5086129;28;20028;-85
2023/01/29 13:47:19;;;;;;;7.47;4.05;;;;;;;;;;5068778;28;21809;-85
2023/01/29 13:50:22;;;;;;;9.20;5.07;;;;;;;;;;5059112;28;20028;-83
2023/01/29 13:52:57;;;;;;;8.52;4.57;;;;;;;;;;5067430;28;20025;-84
2023/01/29 13:55:39;;;;;;;10.45;4.82;;;;;;;;;;5062094;28;20032;-81
2023/01/29 13:58:34;;;;;;;4.57;3.28;;;;;;;;;;5079160;28;20036;-85
2023/01/29 14:01:02;;;;;;;6.35;4.97;;;;;;;;;;5063560;28;20101;-84
2023/01/29 14:03:27;;;;;;;9.20;4.60;;;;;;;;;;5068096;28;20031;-86
2023/01/29 14:05:53;;;;;;;10.88;5.80;;;;;;;;;;5082479;28;20036;-85
2023/01/29 14:08:33;;;;;;;6.05;4.38;;;;;;;;;;5062006;28;20070;-84
2023/01/29 14:11:14;;;;;;;11.80;5.35;;;;;;;;;;5068373;28;20118;-86
2023/01/29 14:13:45;;;;;;;9.35;3.90;;;;;;;;;;5060599;28;20099;-84
2023/01/29 14:16:10;;;;;;;8.88;4.50;;;;;;;;;;5075812;28;20032;-84
2023/01/29 14:18:45;;;;;;;8.32;4.15;;;;;;;;;;5071467;28;20084;-84
2023/01/29 14:21:32;;;;;;;6.50;4.53;;;;;;;;;;5061194;28;20028;-83
2023/01/29 14:24:18;;;;;;;15.45;5.28;;;;;;;;;;5081616;28;20028;-84
2023/01/29 14:26:46;;;;;;;18.90;6.22;;;;;;;;;;5068028;28;20090;-83
2023/01/29 14:29:11;;;;;;;5.35;3.30;;;;;;;;;;5067634;28;20028;-85
2023/01/29 14:31:52;;;;;;;5.55;3.45;;;;;;;;;;5065554;28;20157;-85
2023/01/29 14:34:31;;;;;;;10.23;6.72;;;;;;;;;;5077028;28;20028;-80
2023/01/29 14:37:15;;;;;;;7.93;4.50;;;;;;;;;;5079082;28;20043;-81
2023/01/29 14:39:53;;;;;;;7.15;5.75;;;;;;;;;;5078823;28;20099;-81
2023/01/29 14:42:30;;;;;;;11.30;5.13;;;;;;;;;;5060514;28;20032;-84
2023/01/29 14:44:58;;;;;;;4.55;3.38;;;;;;;;;;5066490;28;20028;-85
2023/01/29 14:47:26;;;;;;;6.85;5.25;;;;;;;;;;5084074;28;20167;-84
2023/01/29 14:49:57;;;;;;;15.57;6.80;;;;;;;;;;5080819;28;20024;-84
2023/01/29 14:52:32;;;;;;;12.30;6.93;;;;;;;;;;5082373;28;20102;-82
2023/01/29 14:55:02;;;;;;;8.52;5.40;;;;;;;;;;5080360;28;20489;-85
2023/01/29 14:57:29;;;;;;;16.25;9.68;;;;;;;;;;5065682;28;20024;-83
2023/01/29 14:59:59;;;;;;;15.50;7.30;;;;;;;;;;5063901;28;20024;-84
2023/01/29 15:02:36;;;;;;;9.57;6.13;;;;;;;;;;5064299;28;20462;-83
2023/01/29 15:05:06;;;;;;;8.38;5.35;;;;;;;;;;5064218;28;20024;-86
2023/01/29 15:07:32;;;;;;;6.82;4.43;;;;;;;;;;5083943;28;20040;-83
2023/01/29 15:10:20;;;;;;;11.20;7.03;;;;;;;;;;5082497;28;20040;-84
2023/01/29 15:13:01;;;;;;;9.75;5.22;;;;;;;;;;5080450;28;20051;-86
2023/01/29 15:15:40;;;;;;;9.00;6.18;;;;;;;;;;5063210;28;20035;-85
2023/01/29 15:18:16;;;;;;;5.75;2.80;;;;;;;;;;5082378;28;20029;-86
2023/01/29 15:20:42;;;;;;;6.25;4.10;;;;;;;;;;5064059;28;20464;-84
2023/01/29 15:23:24;;;;;;;8.55;4.90;;;;;;;;;;5084345;28;20464;-86
2023/01/29 15:25:52;;;;;;;7.00;3.88;;;;;;;;;;5082134;28;20040;-87
2023/01/29 15:28:18;;;;;;;9.77;5.32;;;;;;;;;;5085004;28;20432;-84
2023/01/29 15:30:43;;;;;;;5.88;4.63;;;;;;;;;;5068970;28;20110;-83
2023/01/29 15:33:16;;;;;;;7.68;4.70;;;;;;;;;;5085400;28;20058;-83
2023/01/29 15:35:45;;;;;;;3.40;3.15;;;;;;;;;;5085610;28;20441;-84
2023/01/29 15:38:14;;;;;;;;;;;;;;;;;;5090116;28;20032;-84
2023/01/29 15:40:39;;;;;;;7.57;5.18;;;;;;;;;;5062154;28;19912;-82
2023/01/29 15:43:25;;;;;;;5.78;3.72;;;;;;;;;;5077126;28;20388;-84